Columbus, North Carolina
Current Conditions -  °F | °C
As of 7:55 AM on Tuesday 21 Oct 2014 (Local Time) from KFQD Reporting Station
Haze Haze  
Wind Chill: 44°   Ceiling: 700
Heat Index: 44°   Visibility: 1.7mi
Dew Point: 44°   Wind: 3mph
Humidity: 100%   Direction: 200°SSW
Pressure: 29.97"   Gusts: NA
Location:  35.25°N, 82.2°W
Report Text: KFQD 211155Z AUTO 20003KT 1 3/4SM BR VV007 07/07 A2997 RMK AO2 VIS 1V5 T00670067 10106 20066
Loading
Personal Weather Stations






























Interactive Weather Map
Tropical Storm Tracking
New forecast layout! Learn more

10-Day Weather Forecast

Advertisements
Track Severe Weather on mobile